Time;durP1;ratioP1;P1;durP2;ratioP2;P2;SDS_P1;SDS_P2;PMS_P1;PMS_P2;Temp;Humidity;BMP_temperature;BMP_pressure;BME280_temperature;BME280_humidity;BME280_pressure;Samples;Min_cycle;Max_cycle;Signal;HPM_P1;HPM_P2
2024/01/30 00:01:53;;;;;;;79.13;31.13;;;-1.90;99.90;;;;;;4402735;28;660028;-75
2024/01/30 00:04:40;;;;;;;93.83;35.60;;;-1.90;99.90;;;;;;4425939;28;659572;-75
2024/01/30 00:07:27;;;;;;;77.70;30.23;;;-1.90;99.90;;;;;;4395286;28;659033;-74
2024/01/30 00:10:15;;;;;;;72.40;28.83;;;-2.00;99.90;;;;;;4425610;28;659667;-75
2024/01/30 00:13:04;;;;;;;69.80;27.93;;;-2.00;99.90;;;;;;4427526;28;659142;-75
2024/01/30 00:15:51;;;;;;;63.30;25.47;;;-2.00;99.90;;;;;;4437134;28;659182;-75
2024/01/30 00:18:39;;;;;;;78.85;27.77;;;-2.10;99.90;;;;;;4408692;28;658948;-74
2024/01/30 00:21:26;;;;;;;79.60;29.97;;;-2.10;99.90;;;;;;4429551;28;658845;-75
2024/01/30 00:24:13;;;;;;;75.47;29.70;;;-2.30;99.90;;;;;;4408095;28;658576;-75
2024/01/30 00:27:01;;;;;;;73.73;27.27;;;-2.40;99.90;;;;;;4428712;28;659499;-75
2024/01/30 00:29:49;;;;;;;71.37;27.87;;;-2.40;99.90;;;;;;4412592;28;659075;-75
2024/01/30 00:32:37;;;;;;;72.72;28.45;;;-2.30;99.90;;;;;;4438350;28;658655;-75
2024/01/30 00:35:24;;;;;;;70.40;28.87;;;-2.30;99.90;;;;;;4404715;28;659132;-75
2024/01/30 00:38:11;;;;;;;55.77;24.10;;;-2.20;99.90;;;;;;4425544;28;659819;-75
2024/01/30 00:40:58;;;;;;;70.80;26.43;;;-2.00;99.90;;;;;;4405185;28;658354;-75
2024/01/30 00:43:45;;;;;;;63.07;25.63;;;-2.00;99.90;;;;;;4410398;28;658717;-75
2024/01/30 00:46:34;;;;;;;61.90;25.63;;;-2.10;99.90;;;;;;4408139;28;658529;-75
2024/01/30 00:49:21;;;;;;;58.20;23.20;;;-2.10;99.90;;;;;;4437532;28;659648;-75
2024/01/30 00:52:08;;;;;;;59.00;24.10;;;-2.20;99.90;;;;;;4412350;28;659111;-75
2024/01/30 00:54:55;;;;;;;58.43;23.90;;;-2.30;99.90;;;;;;4436070;28;659966;-75
2024/01/30 00:57:43;;;;;;;69.33;27.93;;;-2.30;99.90;;;;;;4423940;28;658640;-75
2024/01/30 01:00:31;;;;;;;61.33;22.13;;;-2.20;99.90;;;;;;4428209;28;659920;-75
2024/01/30 01:03:19;;;;;;;60.33;25.30;;;-2.20;99.90;;;;;;4420254;28;658519;-75
2024/01/30 01:06:06;;;;;;;60.73;23.93;;;-2.20;99.90;;;;;;4442310;28;658123;-75
2024/01/30 01:08:54;;;;;;;60.70;24.67;;;-2.30;99.90;;;;;;4404908;28;659132;-75
2024/01/30 01:11:41;;;;;;;1999.90;108.80;;;-2.30;99.90;;;;;;4428041;28;658626;-75
2024/01/30 01:14:28;;;;;;;55.10;20.23;;;-2.30;99.90;;;;;;4408469;28;662046;-75
2024/01/30 01:17:15;;;;;;;47.77;19.50;;;-2.40;99.90;;;;;;4448021;28;658978;-74
2024/01/30 01:20:06;;;;;;;50.47;20.23;;;-2.30;99.90;;;;;;4413155;28;658990;-75
2024/01/30 01:22:53;;;;;;;44.83;17.77;;;-2.30;99.90;;;;;;4407489;28;658806;-75
2024/01/30 01:25:41;;;;;;;42.93;18.77;;;-2.40;99.90;;;;;;4430796;28;658774;-75
2024/01/30 01:28:28;;;;;;;43.90;18.13;;;-2.30;99.90;;;;;;4404344;28;658775;-75
2024/01/30 01:31:15;;;;;;;39.10;18.10;;;-2.30;99.90;;;;;;4434876;28;660335;-75
2024/01/30 01:34:02;;;;;;;47.00;18.37;;;-2.30;99.90;;;;;;4413255;28;658398;-75
2024/01/30 01:36:51;;;;;;;44.17;17.60;;;-2.40;99.90;;;;;;4446250;28;658366;-75
2024/01/30 01:39:38;;;;;;;43.17;17.47;;;-2.50;99.90;;;;;;4410294;28;659058;-75
2024/01/30 01:42:25;;;;;;;48.23;19.17;;;-2.50;99.90;;;;;;4439958;28;658473;-75
2024/01/30 01:45:12;;;;;;;49.53;19.40;;;-2.40;99.90;;;;;;4408288;28;659028;-75
2024/01/30 01:47:59;;;;;;;46.80;19.40;;;-2.40;99.90;;;;;;4431352;28;658968;-75
2024/01/30 01:50:47;;;;;;;44.40;18.40;;;-2.50;99.90;;;;;;4434827;28;658326;-74
2024/01/30 01:53:35;;;;;;;47.70;19.00;;;-2.40;99.90;;;;;;4420318;28;660026;-75
2024/01/30 01:56:23;;;;;;;45.50;19.02;;;-2.60;99.90;;;;;;4412455;28;659710;-75
2024/01/30 01:59:10;;;;;;;51.80;19.60;;;-2.70;99.90;;;;;;4432486;28;659474;-75
2024/01/30 02:01:57;;;;;;;61.27;25.80;;;-2.70;99.90;;;;;;4405615;28;658796;-75
2024/01/30 02:04:45;;;;;;;53.20;21.13;;;-2.60;99.90;;;;;;4426730;28;659422;-75
2024/01/30 02:07:32;;;;;;;55.77;22.93;;;-2.60;99.90;;;;;;4432866;28;658521;-75
2024/01/30 02:10:21;;;;;;;56.17;23.53;;;-2.60;99.90;;;;;;4435393;28;658960;-75
2024/01/30 02:13:08;;;;;;;52.40;21.07;;;-2.60;99.90;;;;;;4409184;28;659047;-75
2024/01/30 02:15:55;;;;;;;47.30;18.83;;;-2.70;99.90;;;;;;4438850;28;659597;-75
2024/01/30 02:18:45;;;;;;;42.03;18.37;;;-2.70;99.90;;;;;;4413342;28;658420;-75
2024/01/30 02:21:34;;;;;;;47.57;18.17;;;-2.80;99.90;;;;;;4428884;28;658574;-75
2024/01/30 02:24:21;;;;;;;45.80;19.03;;;-2.80;99.90;;;;;;4435275;28;659056;-75
2024/01/30 02:27:08;;;;;;;54.83;19.40;;;-2.80;99.90;;;;;;4415910;28;659038;-75
2024/01/30 02:29:55;;;;;;;48.53;18.13;;;-2.80;99.90;;;;;;4431561;28;658609;-75
2024/01/30 02:32:42;;;;;;;41.87;18.13;;;-2.80;99.90;;;;;;4412456;28;658771;-75
2024/01/30 02:35:29;;;;;;;45.83;18.60;;;-2.90;99.90;;;;;;4436838;28;658539;-75
2024/01/30 02:38:18;;;;;;;50.20;19.33;;;-3.00;99.90;;;;;;4433307;28;658263;-75
2024/01/30 02:41:05;;;;;;;50.13;19.50;;;-3.00;99.90;;;;;;4393706;28;658729;-75
2024/01/30 02:43:52;;;;;;;42.10;14.93;;;-3.00;99.90;;;;;;4402123;28;658461;-75
2024/01/30 02:46:40;;;;;;;45.38;17.63;;;-3.00;99.90;;;;;;4425364;28;658830;-75
2024/01/30 02:49:27;;;;;;;50.57;19.40;;;-2.90;99.90;;;;;;4434204;28;658718;-75
2024/01/30 02:52:14;;;;;;;46.80;17.90;;;-2.90;99.90;;;;;;4402869;28;658916;-75
2024/01/30 02:55:03;;;;;;;49.30;18.63;;;-3.00;99.90;;;;;;4433949;28;658064;-75
2024/01/30 02:57:50;;;;;;;45.80;18.57;;;-2.90;99.90;;;;;;4397942;28;659413;-75
2024/01/30 03:00:37;;;;;;;54.43;17.53;;;-2.90;99.90;;;;;;4421471;28;659097;-75
2024/01/30 03:03:24;;;;;;;46.88;18.48;;;-2.90;99.90;;;;;;4436736;28;659238;-74
2024/01/30 03:06:12;;;;;;;51.87;20.40;;;-2.90;99.90;;;;;;4438624;28;658640;-76
2024/01/30 03:08:59;;;;;;;52.07;19.87;;;-3.10;99.90;;;;;;4416898;28;659499;-75
2024/01/30 03:11:47;;;;;;;53.80;21.50;;;-3.00;99.90;;;;;;4431354;28;658574;-75
2024/01/30 03:14:35;;;;;;;55.53;21.93;;;-3.10;99.90;;;;;;4403892;28;659170;-76
2024/01/30 03:17:24;;;;;;;51.40;20.60;;;-3.10;99.90;;;;;;4424175;28;658611;-75
2024/01/30 03:20:12;;;;;;;51.97;20.27;;;-3.00;99.90;;;;;;4430081;28;658821;-75
2024/01/30 03:23:00;;;;;;;49.30;20.13;;;-3.10;99.90;;;;;;4414406;28;659080;-75
2024/01/30 03:25:48;;;;;;;55.27;19.97;;;-3.20;99.90;;;;;;4418751;28;658856;-75
2024/01/30 03:28:36;;;;;;;56.40;22.17;;;-3.20;99.90;;;;;;4433384;28;659392;-76
2024/01/30 03:31:23;;;;;;;53.95;20.50;;;-3.20;99.90;;;;;;4407535;28;659088;-75
2024/01/30 03:34:11;;;;;;;57.83;20.80;;;-3.30;99.90;;;;;;4427083;28;659578;-76
2024/01/30 03:36:58;;;;;;;51.17;20.87;;;-3.20;99.90;;;;;;4416582;28;658775;-75
2024/01/30 03:39:45;;;;;;;50.50;21.40;;;-3.30;99.90;;;;;;4426485;28;659837;-75
2024/01/30 03:42:32;;;;;;;52.33;20.27;;;-3.20;99.90;;;;;;4426546;28;658823;-76
2024/01/30 03:45:21;;;;;;;57.33;22.03;;;-3.30;99.90;;;;;;4441732;28;658382;-76
2024/01/30 03:48:09;;;;;;;57.97;23.67;;;-3.40;99.90;;;;;;4410691;28;659456;-75
2024/01/30 03:50:56;;;;;;;59.60;22.80;;;-3.40;99.90;;;;;;4430459;28;658782;-76
2024/01/30 03:53:45;;;;;;;57.87;22.50;;;-3.40;99.90;;;;;;4402060;28;659308;-75
2024/01/30 03:56:33;;;;;;;53.23;23.03;;;-3.30;99.90;;;;;;4423794;28;658921;-76
2024/01/30 03:59:23;;;;;;;55.73;21.30;;;-3.30;99.90;;;;;;4436810;28;659147;-76
2024/01/30 04:02:12;;;;;;;59.23;22.23;;;-3.40;99.90;;;;;;4411206;28;659559;-76
2024/01/30 04:05:00;;;;;;;50.87;20.63;;;-3.40;99.90;;;;;;4412391;28;658946;-76
2024/01/30 04:07:47;;;;;;;56.60;22.83;;;-3.40;99.90;;;;;;4428531;28;658120;-76
2024/01/30 04:10:34;;;;;;;56.73;22.83;;;-3.40;99.90;;;;;;4396830;28;659291;-76
2024/01/30 04:13:21;;;;;;;61.07;22.93;;;-3.40;99.90;;;;;;4435723;28;658388;-76
2024/01/30 04:16:08;;;;;;;60.43;22.57;;;-3.40;99.90;;;;;;4405692;28;658656;-76
2024/01/30 04:18:57;;;;;;;66.30;25.27;;;-3.50;99.90;;;;;;4426882;28;659748;-76
2024/01/30 04:21:44;;;;;;;61.03;24.67;;;-3.50;99.90;;;;;;4407643;28;659232;-76
2024/01/30 04:24:31;;;;;;;57.60;24.63;;;-3.50;99.90;;;;;;4430348;28;658645;-76
2024/01/30 04:27:18;;;;;;;61.80;24.83;;;-3.60;99.90;;;;;;4407941;28;658496;-76
2024/01/30 04:30:07;;;;;;;53.47;22.20;;;-3.60;99.90;;;;;;4430209;28;658940;-76
2024/01/30 04:32:54;;;;;;;57.30;22.10;;;-3.50;99.90;;;;;;4407712;28;659045;-76
2024/01/30 04:35:42;;;;;;;55.33;22.87;;;-3.40;99.90;;;;;;4427826;28;659304;-76
2024/01/30 04:38:29;;;;;;;61.37;24.63;;;-3.50;99.90;;;;;;4414820;28;658405;-76
2024/01/30 04:41:17;;;;;;;61.80;23.43;;;-3.50;99.90;;;;;;4428923;28;658647;-76
2024/01/30 04:44:04;;;;;;;51.80;22.60;;;-3.50;99.90;;;;;;4415935;28;658571;-76
2024/01/30 04:46:51;;;;;;;60.43;23.57;;;-3.50;99.90;;;;;;4421233;28;658626;-76
2024/01/30 04:49:39;;;;;;;57.80;24.13;;;-3.50;99.90;;;;;;4409852;28;659380;-77
2024/01/30 04:52:28;;;;;;;56.60;24.73;;;-3.60;99.90;;;;;;4428456;28;658471;-77
2024/01/30 04:55:15;;;;;;;60.63;26.07;;;-3.50;99.90;;;;;;4416786;28;659206;-76
2024/01/30 04:58:02;;;;;;;61.13;24.43;;;-3.40;99.90;;;;;;4432410;28;658992;-75
2024/01/30 05:00:51;;;;;;;58.87;24.03;;;-3.40;99.90;;;;;;4439370;28;658727;-76
2024/01/30 05:03:38;;;;;;;54.83;23.47;;;-3.40;99.90;;;;;;4409638;28;658651;-76
2024/01/30 05:06:26;;;;;;;55.13;23.23;;;-3.50;99.90;;;;;;4444511;28;659522;-76
2024/01/30 05:09:15;;;;;;;55.40;22.03;;;-3.50;99.90;;;;;;4417265;28;659021;-76
2024/01/30 05:12:02;;;;;;;52.30;22.30;;;-3.50;99.90;;;;;;4437229;28;659226;-76
2024/01/30 05:14:49;;;;;;;48.37;20.90;;;-3.50;99.90;;;;;;4402515;28;659295;-76
2024/01/30 05:17:36;;;;;;;46.87;18.77;;;-3.60;99.90;;;;;;4428810;28;658830;-76
2024/01/30 05:20:23;;;;;;;46.13;18.95;;;-3.60;99.90;;;;;;4422406;28;658924;-76
2024/01/30 05:23:11;;;;;;;41.70;17.93;;;-3.60;99.90;;;;;;4437356;28;659165;-76
2024/01/30 05:26:00;;;;;;;40.53;16.57;;;-3.70;99.90;;;;;;4388803;28;658670;-76
2024/01/30 05:28:48;;;;;;;45.38;18.23;;;-3.70;99.90;;;;;;4399591;28;658864;-76
2024/01/30 05:31:35;;;;;;;43.73;16.17;;;-3.70;99.90;;;;;;4426022;28;659257;-76
2024/01/30 05:34:22;;;;;;;44.03;16.40;;;-3.70;99.90;;;;;;4423186;28;659175;-75
2024/01/30 05:37:14;;;;;;;38.08;15.60;;;-3.60;99.90;;;;;;4436660;28;659203;-76
2024/01/30 05:40:01;;;;;;;39.43;15.70;;;-3.70;99.90;;;;;;4409439;28;659293;-75
2024/01/30 05:42:49;;;;;;;32.93;13.27;;;-3.70;99.90;;;;;;4408544;28;659120;-76
2024/01/30 05:45:36;;;;;;;38.00;13.55;;;-3.70;99.90;;;;;;4444323;28;658182;-76
2024/01/30 05:48:24;;;;;;;33.70;12.80;;;-3.60;99.90;;;;;;4410930;28;658806;-76
2024/01/30 05:51:11;;;;;;;29.10;13.03;;;-3.70;99.90;;;;;;4429502;28;658942;-75
2024/01/30 05:53:58;;;;;;;31.03;14.23;;;-3.60;99.90;;;;;;4415643;28;658412;-75
2024/01/30 05:56:45;;;;;;;40.97;16.70;;;-3.60;99.90;;;;;;4433150;28;659995;-75
2024/01/30 05:59:36;;;;;;;38.83;17.20;;;-3.60;99.90;;;;;;4410501;28;659508;-75
2024/01/30 06:02:23;;;;;;;1972.63;108.80;;;-3.70;99.90;;;;;;4404164;28;658845;-75
2024/01/30 06:05:10;;;;;;;43.70;19.07;;;-3.70;99.90;;;;;;4429397;28;662583;-75
2024/01/30 06:07:57;;;;;;;42.00;17.90;;;-3.60;99.90;;;;;;4417440;28;658387;-75
2024/01/30 06:10:45;;;;;;;36.90;17.20;;;-3.60;99.90;;;;;;4429801;28;659291;-74
2024/01/30 06:13:32;;;;;;;33.10;15.00;;;-3.50;99.90;;;;;;4432397;28;658381;-75
2024/01/30 06:16:22;;;;;;;41.77;17.03;;;-3.50;99.90;;;;;;4414060;28;659307;-74
2024/01/30 06:19:09;;;;;;;37.73;16.50;;;-3.50;99.90;;;;;;4409348;28;659805;-74
2024/01/30 06:21:56;;;;;;;36.60;16.03;;;-3.50;99.90;;;;;;4447629;28;658742;-74
2024/01/30 06:24:44;;;;;;;43.80;15.17;;;-3.60;99.90;;;;;;4409208;28;658320;-75
2024/01/30 06:27:32;;;;;;;48.45;16.73;;;-3.60;99.90;;;;;;4431608;28;658079;-75
2024/01/30 06:30:19;;;;;;;44.37;16.43;;;-3.60;99.90;;;;;;4399625;28;658797;-74
2024/01/30 06:33:07;;;;;;;40.60;16.27;;;-3.60;99.90;;;;;;4439343;28;658517;-75
2024/01/30 06:35:54;;;;;;;44.77;18.47;;;-3.60;99.90;;;;;;4410568;28;658902;-75
2024/01/30 06:38:42;;;;;;;46.70;17.77;;;-3.60;99.90;;;;;;4428726;28;658567;-75
2024/01/30 06:41:29;;;;;;;37.83;17.20;;;-3.60;99.90;;;;;;4418487;28;659050;-75
2024/01/30 06:44:16;;;;;;;53.67;22.00;;;-3.70;99.90;;;;;;4434156;28;659426;-75
2024/01/30 06:47:04;;;;;;;61.70;24.33;;;-3.70;99.90;;;;;;4413880;28;658894;-75
2024/01/30 06:49:53;;;;;;;50.87;22.83;;;-3.70;99.90;;;;;;4437199;28;658518;-75
2024/01/30 06:52:40;;;;;;;55.77;23.77;;;-3.70;99.90;;;;;;4412963;28;659333;-75
2024/01/30 06:55:27;;;;;;;53.80;21.73;;;-3.50;99.90;;;;;;4421321;28;659195;-75
2024/01/30 06:58:15;;;;;;;51.87;20.53;;;-3.40;99.90;;;;;;4432363;28;658492;-74
2024/01/30 07:01:02;;;;;;;50.97;20.93;;;-3.40;99.90;;;;;;4447015;28;659519;-75
2024/01/30 07:03:49;;;;;;;49.57;20.33;;;-3.40;99.90;;;;;;4410159;28;658737;-75
2024/01/30 07:06:38;;;;;;;50.13;20.40;;;-3.40;99.90;;;;;;4443686;28;658643;-75
2024/01/30 07:09:25;;;;;;;50.63;20.67;;;-3.30;99.90;;;;;;4393284;28;658771;-75
2024/01/30 07:12:12;;;;;;;48.83;19.52;;;-3.10;99.90;;;;;;4400044;28;659476;-75
2024/01/30 07:15:00;;;;;;;55.43;22.80;;;-3.10;99.90;;;;;;4429258;28;658921;-75
2024/01/30 07:17:47;;;;;;;46.77;21.03;;;-3.00;99.90;;;;;;4427380;28;658604;-75
2024/01/30 07:20:35;;;;;;;54.65;23.65;;;-2.90;99.90;;;;;;4438537;28;658745;-75
2024/01/30 07:23:24;;;;;;;52.33;22.27;;;-2.70;99.90;;;;;;4423068;28;658854;-75
2024/01/30 07:26:11;;;;;;;62.13;22.57;;;-2.60;99.90;;;;;;4430681;28;658683;-75
2024/01/30 07:28:59;;;;;;;53.53;22.37;;;-2.60;99.90;;;;;;4413399;28;658564;-74
2024/01/30 07:31:46;;;;;;;52.83;21.30;;;-2.50;99.90;;;;;;4425415;28;659548;-74
2024/01/30 07:34:33;;;;;;;50.47;22.60;;;-2.40;99.90;;;;;;4418839;28;658363;-75
2024/01/30 07:37:20;;;;;;;50.37;21.53;;;-2.20;99.90;;;;;;4425251;28;659332;-75
2024/01/30 07:40:10;;;;;;;46.50;19.90;;;-2.00;99.90;;;;;;4408113;28;659316;-75
2024/01/30 07:42:57;;;;;;;40.47;17.77;;;-1.90;99.90;;;;;;4425456;28;658631;-75
2024/01/30 07:45:45;;;;;;;44.37;18.90;;;-1.70;99.90;;;;;;4432579;28;658560;-75
2024/01/30 07:48:33;;;;;;;44.30;19.17;;;-1.50;99.90;;;;;;4421705;28;658458;-75
2024/01/30 07:51:20;;;;;;;49.70;20.50;;;-1.40;99.90;;;;;;4438075;28;659942;-75
2024/01/30 07:54:08;;;;;;;42.43;18.50;;;-1.30;99.90;;;;;;4412576;28;658499;-75
2024/01/30 07:56:56;;;;;;;48.07;20.77;;;-1.10;99.90;;;;;;4432321;28;659831;-75
2024/01/30 07:59:44;;;;;;;45.33;19.97;;;-1.00;99.90;;;;;;4407851;28;659008;-75
2024/01/30 08:02:32;;;;;;;42.73;17.30;;;-0.80;99.90;;;;;;4432654;28;658362;-75
2024/01/30 08:05:19;;;;;;;40.03;17.57;;;-0.70;99.90;;;;;;4409825;28;659183;-75
2024/01/30 08:08:06;;;;;;;26.90;10.53;;;-0.60;99.90;;;;;;4424842;28;659196;-75
2024/01/30 08:10:53;;;;;;;33.08;12.65;;;-0.20;99.90;;;;;;4406916;28;658427;-76
2024/01/30 08:13:42;;;;;;;30.87;13.57;;;0.20;99.90;;;;;;4436709;28;659883;-76
2024/01/30 08:16:29;;;;;;;41.23;15.57;;;0.50;99.90;;;;;;4415268;28;658051;-76
2024/01/30 08:19:16;;;;;;;40.33;15.80;;;0.90;99.90;;;;;;4426935;28;658271;-75
2024/01/30 08:22:04;;;;;;;39.60;16.10;;;1.30;99.90;;;;;;4406541;28;657820;-76
2024/01/30 08:24:51;;;;;;;35.27;14.53;;;1.60;99.90;;;;;;4431921;28;657563;-76
2024/01/30 08:27:39;;;;;;;33.07;12.63;;;1.80;99.90;;;;;;4413344;28;657836;-76
2024/01/30 08:30:27;;;;;;;34.83;13.13;;;2.00;99.90;;;;;;4429037;28;657880;-77
2024/01/30 08:33:14;;;;;;;31.13;14.13;;;2.30;99.90;;;;;;4413277;28;658493;-77
2024/01/30 08:36:02;;;;;;;36.43;14.40;;;2.70;99.90;;;;;;4428807;28;657256;-78
2024/01/30 08:38:49;;;;;;;34.13;14.57;;;2.90;99.90;;;;;;4418725;28;659107;-79
2024/01/30 08:41:36;;;;;;;42.00;13.43;;;3.50;99.90;;;;;;4439331;28;658123;-79
2024/01/30 08:44:23;;;;;;;39.57;14.60;;;3.50;99.90;;;;;;4410271;28;658126;-80
2024/01/30 08:47:12;;;;;;;34.72;15.52;;;3.20;99.90;;;;;;4433020;28;657795;-83
2024/01/30 08:49:59;;;;;;;39.70;16.67;;;3.00;99.90;;;;;;4395540;28;658854;-80
2024/01/30 08:52:46;;;;;;;38.37;16.70;;;3.10;99.90;;;;;;4423700;28;657644;-78
2024/01/30 08:55:33;;;;;;;39.50;16.42;;;3.30;99.90;;;;;;4412689;28;658521;-77
2024/01/30 08:58:21;;;;;;;34.83;16.17;;;3.40;99.90;;;;;;4439282;28;658011;-77
2024/01/30 09:01:08;;;;;;;40.67;15.17;;;3.90;99.90;;;;;;4412216;28;657790;-77
2024/01/30 09:03:56;;;;;;;32.40;13.73;;;4.00;99.90;;;;;;4434644;28;659347;-77
2024/01/30 09:06:43;;;;;;;43.33;18.37;;;3.90;99.90;;;;;;4405834;28;657710;-76
2024/01/30 09:09:31;;;;;;;23.47;9.30;;;4.00;99.90;;;;;;4433306;28;658911;-75
2024/01/30 09:12:18;;;;;;;41.07;17.00;;;4.10;99.90;;;;;;4418801;28;656677;-75
2024/01/30 09:15:06;;;;;;;37.90;15.17;;;4.30;99.90;;;;;;4424558;28;658621;-74
2024/01/30 09:17:53;;;;;;;25.60;11.80;;;4.40;99.90;;;;;;4410593;28;657704;-73
2024/01/30 09:20:42;;;;;;;42.93;15.07;;;3.90;99.90;;;;;;4435744;28;658802;-73
2024/01/30 09:23:29;;;;;;;21.10;7.50;;;4.30;99.90;;;;;;4408637;28;658413;-73
2024/01/30 09:26:16;;;;;;;41.00;17.07;;;4.20;99.90;;;;;;4419526;28;656842;-73
2024/01/30 09:29:03;;;;;;;35.43;14.23;;;4.40;99.90;;;;;;4412756;28;657882;-73
2024/01/30 09:31:51;;;;;;;28.33;12.90;;;5.50;99.90;;;;;;4435295;28;657944;-73
2024/01/30 09:34:39;;;;;;;34.03;15.40;;;5.50;99.90;;;;;;4414358;28;658222;-74
2024/01/30 09:37:27;;;;;;;32.80;13.17;;;6.30;99.90;;;;;;4433145;28;657579;-74
2024/01/30 09:40:18;;;;;;;30.37;9.83;;;6.00;99.90;;;;;;4405652;28;658140;-74
2024/01/30 09:43:05;;;;;;;40.17;15.57;;;5.60;99.90;;;;;;4413704;28;657134;-74
2024/01/30 09:45:53;;;;;;;41.07;14.53;;;5.80;99.90;;;;;;4413640;28;657626;-74
2024/01/30 09:48:41;;;;;;;29.93;15.17;;;6.40;99.90;;;;;;4438477;28;657860;-74
2024/01/30 09:51:28;;;;;;;37.37;15.07;;;6.00;99.90;;;;;;4414598;28;657474;-74
2024/01/30 09:54:16;;;;;;;34.73;15.47;;;5.60;99.90;;;;;;4433632;28;658467;-74
2024/01/30 09:57:04;;;;;;;38.17;16.57;;;6.60;99.90;;;;;;4415351;28;658687;-73
2024/01/30 09:59:53;;;;;;;15.83;5.53;;;7.80;99.90;;;;;;4442171;28;658007;-74
2024/01/30 10:02:41;;;;;;;38.77;16.47;;;7.10;95.90;;;;;;4413397;28;657412;-74
2024/01/30 10:05:28;;;;;;;39.97;16.97;;;6.30;99.90;;;;;;4408388;28;657949;-73
2024/01/30 10:08:15;;;;;;;36.63;17.30;;;7.20;99.90;;;;;;4436065;28;658387;-73
2024/01/30 10:11:04;;;;;;;33.93;16.07;;;7.30;99.90;;;;;;4412212;28;657283;-73
2024/01/30 10:13:51;;;;;;;33.80;16.60;;;8.10;93.00;;;;;;4435338;28;658018;-73
2024/01/30 10:16:39;;;;;;;41.87;18.43;;;7.60;99.90;;;;;;4416330;28;657766;-73
2024/01/30 10:19:26;;;;;;;35.37;16.97;;;7.10;94.50;;;;;;4426691;28;658196;-73
2024/01/30 10:22:13;;;;;;;23.60;10.75;;;8.10;76.90;;;;;;4415042;28;657177;-73
2024/01/30 10:25:01;;;;;;;38.20;16.53;;;8.70;67.00;;;;;;4438830;28;657676;-73
2024/01/30 10:27:53;;;;;;;35.17;16.17;;;8.10;71.80;;;;;;4404366;28;658136;-73
2024/01/30 10:30:40;;;;;;;33.83;15.70;;;8.10;71.10;;;;;;4416173;28;658847;-73
2024/01/30 10:33:28;;;;;;;33.30;14.90;;;8.50;77.40;;;;;;4417655;28;658216;-73
2024/01/30 10:36:16;;;;;;;31.73;15.40;;;9.20;63.20;;;;;;4434591;28;658042;-73
2024/01/30 10:39:06;;;;;;;33.07;14.57;;;9.10;66.90;;;;;;4418008;28;658052;-73
2024/01/30 10:41:53;;;;;;;25.17;9.00;;;10.30;60.60;;;;;;4413511;28;657120;-73
2024/01/30 10:44:46;;;;;;;23.40;10.17;;;10.40;57.30;;;;;;4421257;28;658717;-74
2024/01/30 10:47:34;;;;;;;11.63;4.63;;;9.60;59.40;;;;;;4393237;28;658927;-73
2024/01/30 10:50:21;;;;;;;19.43;7.43;;;7.80;60.80;;;;;;4416919;28;657134;-73
2024/01/30 10:53:08;;;;;;;27.57;11.93;;;7.60;64.00;;;;;;4416929;28;657258;-73
2024/01/30 10:55:55;;;;;;;28.65;13.00;;;8.20;70.50;;;;;;4431350;28;658550;-74
2024/01/30 10:58:43;;;;;;;30.03;12.63;;;8.60;73.70;;;;;;4412732;28;657608;-73
2024/01/30 11:01:31;;;;;;;29.23;10.73;;;9.80;61.50;;;;;;4431180;28;658651;-73
2024/01/30 11:04:18;;;;;;;24.20;12.20;;;10.10;58.70;;;;;;4420240;28;657458;-73
2024/01/30 11:07:16;;;;;;;28.95;11.50;;;9.50;53.70;;;;;;4430082;28;658990;-73
2024/01/30 11:10:04;;;;;;;25.50;11.83;;;10.00;55.10;;;;;;4377098;28;658051;-73
2024/01/30 11:12:51;;;;;;;23.20;10.50;;;11.00;56.30;;;;;;4424917;28;659177;-73
2024/01/30 11:15:39;;;;;;;24.00;11.20;;;11.30;53.00;;;;;;4406758;28;658824;-73
2024/01/30 11:18:29;;;;;;;27.20;11.10;;;10.00;55.30;;;;;;4430039;28;658986;-73
2024/01/30 11:21:16;;;;;;;25.50;11.30;;;9.20;57.30;;;;;;4394784;28;658278;-73
2024/01/30 11:24:04;;;;;;;23.17;9.73;;;9.80;66.90;;;;;;4412584;28;658426;-73
2024/01/30 11:26:56;;;;;;;27.63;12.37;;;11.00;51.60;;;;;;4433291;28;657557;-73
2024/01/30 11:29:43;;;;;;;29.53;12.97;;;10.60;52.50;;;;;;4384145;28;659148;-73
2024/01/30 11:32:31;;;;;;;28.33;12.63;;;11.40;53.40;;;;;;4420261;28;659485;-73
2024/01/30 11:35:19;;;;;;;29.53;10.90;;;11.90;50.60;;;;;;4411406;28;659178;-73
2024/01/30 11:38:07;;;;;;;29.33;14.45;;;10.40;51.70;;;;;;4440836;28;658558;-73
2024/01/30 11:40:55;;;;;;;25.77;10.60;;;9.30;52.20;;;;;;4397352;28;659723;-73
2024/01/30 11:43:42;;;;;;;29.27;12.10;;;10.10;53.40;;;;;;4409182;28;657951;-73
2024/01/30 11:46:30;;;;;;;30.80;13.53;;;11.20;52.80;;;;;;4432300;28;659159;-73
2024/01/30 11:49:18;;;;;;;35.77;15.17;;;11.20;51.10;;;;;;4420303;28;658370;-74
2024/01/30 11:52:07;;;;;;;29.23;14.20;;;12.30;49.10;;;;;;4435724;28;659887;-73
2024/01/30 11:54:54;;;;;;;18.97;7.50;;;11.50;49.40;;;;;;4410403;28;658780;-73
2024/01/30 11:57:41;;;;;;;31.77;13.40;;;10.50;53.30;;;;;;4432856;28;657908;-73
2024/01/30 12:00:30;;;;;;;29.73;14.27;;;10.50;52.20;;;;;;4413898;28;658991;-74
2024/01/30 12:03:17;;;;;;;30.83;15.27;;;11.30;52.10;;;;;;4410379;28;658353;-73
2024/01/30 12:06:06;;;;;;;29.33;13.63;;;11.90;49.30;;;;;;4432442;28;658519;-74
2024/01/30 12:08:59;;;;;;;18.83;9.10;;;12.00;49.00;;;;;;4407947;28;658972;-74
2024/01/30 12:11:47;;;;;;;31.20;13.83;;;12.50;46.50;;;;;;4402167;28;657837;-74
2024/01/30 12:14:34;;;;;;;29.70;14.43;;;10.90;51.90;;;;;;4407681;28;658501;-73
2024/01/30 12:17:25;;;;;;;15.20;6.77;;;11.10;47.50;;;;;;4431490;28;659031;-73
2024/01/30 12:20:13;;;;;;;19.03;9.07;;;11.60;48.40;;;;;;4390664;28;658117;-73
2024/01/30 12:23:00;;;;;;;15.53;7.00;;;11.10;48.80;;;;;;4433191;28;658011;-73
2024/01/30 12:25:49;;;;;;;35.70;15.27;;;10.60;50.10;;;;;;4408499;28;657302;-73
2024/01/30 12:28:36;;;;;;;35.00;14.27;;;10.70;51.60;;;;;;4434655;28;658449;-73
2024/01/30 12:31:27;;;;;;;30.70;13.73;;;12.60;48.80;;;;;;4420796;28;658641;-73
2024/01/30 12:34:15;;;;;;;16.27;6.77;;;12.90;46.20;;;;;;4405598;28;659542;-72
2024/01/30 12:37:02;;;;;;;23.07;10.77;;;12.40;44.60;;;;;;4421302;28;657854;-73
2024/01/30 12:39:50;;;;;;;21.57;9.17;;;11.90;46.40;;;;;;4420499;28;658747;-73
2024/01/30 12:42:38;;;;;;;32.33;14.60;;;11.90;48.00;;;;;;4435628;28;657485;-73
2024/01/30 12:45:26;;;;;;;28.47;11.40;;;12.20;50.80;;;;;;4400436;28;658991;-73
2024/01/30 12:48:13;;;;;;;29.30;12.80;;;12.60;46.60;;;;;;4402415;28;658649;-73
2024/01/30 12:51:00;;;;;;;26.17;12.80;;;13.20;46.90;;;;;;4437666;28;659135;-73
2024/01/30 12:53:48;;;;;;;28.02;13.43;;;12.90;43.30;;;;;;4419529;28;659412;-73
2024/01/30 12:56:35;;;;;;;24.40;9.90;;;12.60;44.40;;;;;;4434524;28;657920;-73
2024/01/30 12:59:24;;;;;;;18.03;5.53;;;13.70;42.50;;;;;;4415386;28;657871;-73
2024/01/30 13:02:11;;;;;;;26.13;12.60;;;12.40;43.30;;;;;;4439815;28;657917;-73
2024/01/30 13:04:58;;;;;;;28.77;12.83;;;12.40;45.70;;;;;;4410179;28;660180;-73
2024/01/30 13:07:45;;;;;;;25.90;11.50;;;11.70;44.70;;;;;;4436740;28;659344;-73
2024/01/30 13:10:32;;;;;;;25.17;11.23;;;12.00;45.60;;;;;;4414580;28;659251;-74
2024/01/30 13:13:20;;;;;;;21.90;9.80;;;12.10;44.50;;;;;;4442257;28;658825;-74
2024/01/30 13:16:09;;;;;;;24.23;10.30;;;12.50;42.60;;;;;;4434303;28;657698;-73
2024/01/30 13:18:56;;;;;;;12.90;5.67;;;11.80;45.00;;;;;;4427739;28;658581;-73
2024/01/30 13:21:43;;;;;;;22.07;8.83;;;11.40;43.70;;;;;;4412743;28;657907;-73
2024/01/30 13:24:31;;;;;;;18.77;8.27;;;11.90;43.10;;;;;;4435581;28;658001;-73
2024/01/30 13:27:18;;;;;;;17.63;7.83;;;11.10;44.90;;;;;;4412618;28;657126;-73
2024/01/30 13:30:07;;;;;;;24.40;10.87;;;11.30;45.10;;;;;;4441597;28;658808;-73
2024/01/30 13:32:56;;;;;;;20.73;8.97;;;10.80;44.60;;;;;;4409833;28;658761;-73
2024/01/30 13:35:43;;;;;;;14.50;5.70;;;11.60;45.30;;;;;;4401968;28;657566;-73
2024/01/30 13:38:30;;;;;;;22.83;9.43;;;11.10;44.20;;;;;;4435606;28;657708;-73
2024/01/30 13:41:17;;;;;;;25.03;9.83;;;10.80;47.10;;;;;;4407117;28;657587;-73
2024/01/30 13:44:05;;;;;;;19.73;9.57;;;12.10;44.10;;;;;;4438977;28;657741;-73
2024/01/30 13:46:53;;;;;;;25.70;12.20;;;12.90;45.30;;;;;;4427363;28;657574;-74
2024/01/30 13:49:41;;;;;;;19.50;8.13;;;12.70;42.00;;;;;;4434414;28;659842;-73
2024/01/30 13:52:28;;;;;;;20.58;8.27;;;12.80;42.80;;;;;;4412356;28;658649;-73
2024/01/30 13:55:16;;;;;;;23.20;10.30;;;11.80;44.60;;;;;;4437188;28;658472;-74
2024/01/30 13:58:03;;;;;;;19.20;7.23;;;12.00;45.60;;;;;;4422277;28;659152;-73
2024/01/30 14:00:50;;;;;;;22.27;8.93;;;11.90;43.20;;;;;;4431107;28;658809;-74
2024/01/30 14:03:37;;;;;;;15.03;7.13;;;11.80;44.30;;;;;;4420375;28;657672;-73